Time;durP1;ratioP1;P1;durP2;ratioP2;P2;SDS_P1;SDS_P2;PMS_P1;PMS_P2;Temp;Humidity;BMP_temperature;BMP_pressure;BME280_temperature;BME280_humidity;BME280_pressure;Samples;Min_cycle;Max_cycle;Signal;HPM_P1;HPM_P2
2022/05/08 00:01:24;;;;;;;23.73;12.32;;;;;9.20;96799.00;;;;8441178;27;20310;-74
2022/05/08 00:05:28;;;;;;;33.67;13.37;;;;;9.10;96800.00;;;;8447564;27;20334;-74
2022/05/08 00:09:35;;;;;;;49.30;13.67;;;;;9.00;96807.00;;;;8439354;27;20302;-73
2022/05/08 00:13:40;;;;;;;63.33;14.87;;;;;9.00;96806.00;;;;8441446;28;20236;-73
2022/05/08 00:17:44;;;;;;;273.13;21.10;;;;;8.90;96803.00;;;;8443326;27;20233;-73
2022/05/08 00:21:47;;;;;;;166.33;19.90;;;;;8.90;96804.00;;;;8437764;27;20218;-74
2022/05/08 00:25:51;;;;;;;111.70;17.87;;;;;8.90;96798.00;;;;8433876;27;20258;-73
2022/05/08 00:29:54;;;;;;;32.90;14.27;;;;;8.80;96801.00;;;;8447916;27;20237;-73
2022/05/08 00:33:59;;;;;;;33.93;15.70;;;;;8.80;96790.00;;;;8446179;27;20218;-71
2022/05/08 00:38:02;;;;;;;41.77;14.63;;;;;8.90;96791.00;;;;8445905;27;20227;-73
2022/05/08 00:42:06;;;;;;;23.80;12.80;;;;;8.80;96780.00;;;;8434796;27;20227;-73
2022/05/08 00:46:10;;;;;;;148.93;17.63;;;;;8.80;96787.00;;;;8445256;27;20222;-71
2022/05/08 00:50:15;;;;;;;34.95;12.82;;;;;8.80;96787.00;;;;8450076;27;20230;-73
2022/05/08 00:54:18;;;;;;;40.28;14.30;;;;;8.70;96783.00;;;;8436783;27;20235;-73
2022/05/08 00:58:22;;;;;;;29.83;14.10;;;;;8.70;96786.00;;;;8437168;27;21044;-74
2022/05/08 01:02:25;;;;;;;26.30;12.70;;;;;8.70;96788.00;;;;8443681;27;20222;-72
2022/05/08 01:06:31;;;;;;;212.70;20.57;;;;;8.70;96789.00;;;;8430776;27;20227;-73
2022/05/08 01:10:36;;;;;;;32.37;14.70;;;;;8.60;96786.00;;;;8434828;27;20238;-73
2022/05/08 01:14:39;;;;;;;23.87;12.83;;;;;8.60;96783.00;;;;8440604;27;20759;-73
2022/05/08 01:18:42;;;;;;;32.13;13.13;;;;;8.60;96788.00;;;;8431291;27;20226;-72
2022/05/08 01:22:48;;;;;;;32.23;14.43;;;;;8.50;96789.00;;;;8443176;27;20214;-72
2022/05/08 01:26:51;;;;;;;26.27;13.00;;;;;8.50;96785.00;;;;8445038;27;20575;-72
2022/05/08 01:30:55;;;;;;;39.53;15.80;;;;;8.50;96782.00;;;;8443362;28;20698;-72
2022/05/08 01:34:58;;;;;;;46.30;17.07;;;;;8.40;96789.00;;;;8447771;27;20233;-74
2022/05/08 01:39:03;;;;;;;39.17;17.23;;;;;8.50;96786.00;;;;8445573;27;20711;-74
2022/05/08 01:43:07;;;;;;;43.70;17.57;;;;;8.50;96780.00;;;;8440853;27;20300;-74
2022/05/08 01:51:31;;;;;;;42.73;18.63;;;;;8.50;96783.00;;;;8444983;27;20237;-73
2022/05/08 01:55:35;;;;;;;47.97;20.00;;;;;8.60;96780.00;;;;8445939;27;20230;-74
2022/05/08 01:59:39;;;;;;;46.33;20.47;;;;;8.70;96779.00;;;;8436382;27;20717;-74
2022/05/08 02:03:42;;;;;;;45.50;19.57;;;;;8.90;96787.00;;;;8437631;27;20218;-73
2022/05/08 02:07:45;;;;;;;42.10;18.40;;;;;8.90;96776.00;;;;8431125;28;20218;-74
2022/05/08 02:11:50;;;;;;;39.10;17.77;;;;;8.90;96782.00;;;;8438131;28;20320;-74
2022/05/08 02:15:53;;;;;;;41.77;16.93;;;;;8.90;96787.00;;;;8436016;28;20222;-72
2022/05/08 02:19:57;;;;;;;40.07;20.43;;;;;9.10;96791.00;;;;8438591;28;20226;-74
2022/05/08 02:24:00;;;;;;;42.80;20.03;;;;;9.40;96781.00;;;;8443128;27;20305;-73
2022/05/08 02:28:06;;;;;;;44.57;19.27;;;;;9.60;96790.00;;;;8431807;28;20702;-73
2022/05/08 02:32:10;;;;;;;37.67;18.77;;;;;9.60;96789.00;;;;8438260;28;20729;-73
2022/05/08 02:36:13;;;;;;;36.23;18.17;;;;;9.60;96785.00;;;;8435075;28;20229;-73
2022/05/08 02:40:17;;;;;;;37.87;18.63;;;;;9.70;96784.00;;;;8444416;28;20224;-73
2022/05/08 02:44:21;;;;;;;40.63;20.13;;;;;9.70;96785.00;;;;8448822;28;20313;-73
2022/05/08 02:48:25;;;;;;;36.13;16.05;;;;;9.70;96789.00;;;;8450419;27;20272;-73
2022/05/08 02:52:28;;;;;;;31.45;14.77;;;;;9.40;96782.00;;;;8451133;27;21190;-73
2022/05/08 03:05:12;;;;;;;32.30;14.93;;;;;8.90;96790.00;;;;8294711;28;20236;-72
2022/05/08 03:09:16;;;;;;;34.57;16.10;;;;;8.90;96800.00;;;;8314880;28;20260;-72
2022/05/08 03:13:19;;;;;;;43.87;19.67;;;;;8.90;96796.00;;;;8309788;28;20225;-72
2022/05/08 03:17:24;;;;;;;46.23;22.50;;;;;9.10;96791.00;;;;8320362;28;21107;-73
2022/05/08 03:21:27;;;;;;;46.20;22.90;;;;;9.30;96796.00;;;;8322791;28;20227;-74
2022/05/08 03:25:31;;;;;;;45.80;23.05;;;;;9.50;96797.00;;;;8322664;28;20240;-74
2022/05/08 03:29:34;;;;;;;41.67;22.17;;;;;9.70;96797.00;;;;8327841;28;20832;-74
2022/05/08 03:33:40;;;;;;;39.90;19.50;;;;;9.90;96795.00;;;;8326048;28;20229;-74
2022/05/08 03:37:43;;;;;;;28.42;13.50;;;;;9.80;96797.00;;;;8317044;28;20259;-73
2022/05/08 03:41:46;;;;;;;26.75;13.60;;;;;9.60;96805.00;;;;8314955;28;20311;-74
2022/05/08 03:45:50;;;;;;;26.43;14.10;;;;;9.40;96795.00;;;;8320478;28;20247;-75
2022/05/08 03:49:54;;;;;;;34.43;16.33;;;;;9.30;96796.00;;;;8320351;28;20666;-75
2022/05/08 03:53:57;;;;;;;45.58;23.75;;;;;9.50;96800.00;;;;8322788;28;20221;-75
2022/05/08 03:58:00;;;;;;;47.10;23.60;;;;;9.80;96804.00;;;;8322968;28;21067;-77
2022/05/08 04:02:04;;;;;;;38.38;21.67;;;;;10.00;96810.00;;;;8330614;28;20669;-77
2022/05/08 04:06:09;;;;;;;38.70;20.87;;;;;10.20;96805.00;;;;8352976;28;20328;-76
2022/05/08 04:10:12;;;;;;;35.95;21.65;;;;;10.30;96810.00;;;;8355596;28;20604;-75
2022/05/08 04:14:16;;;;;;;33.05;16.63;;;;;10.40;96815.00;;;;8355895;28;20309;-76
2022/05/08 04:18:19;;;;;;;27.00;14.05;;;;;10.20;96823.00;;;;8356362;28;20229;-75
2022/05/08 04:26:45;;;;;;;26.05;15.25;;;;;10.00;96833.00;;;;8358087;28;20331;-74
2022/05/08 04:30:50;;;;;;;32.43;16.17;;;;;10.00;96812.00;;;;8344788;28;20236;-75
2022/05/08 04:34:57;;;;;;;38.53;19.60;;;;;10.10;96821.00;;;;8362935;28;20235;-74
2022/05/08 04:39:02;;;;;;;41.42;21.85;;;;;10.30;96830.00;;;;8356656;28;20319;-74
2022/05/08 04:43:05;;;;;;;27.40;13.37;;;;;10.30;96834.00;;;;8356999;28;20253;-74
2022/05/08 04:47:08;;;;;;;24.33;14.77;;;;;10.30;96834.00;;;;8360325;28;20241;-74
2022/05/08 04:51:12;;;;;;;25.67;14.38;;;;;10.30;96839.00;;;;8352065;28;20943;-74
2022/05/08 04:55:16;;;;;;;29.63;16.70;;;;;10.40;96842.00;;;;8354288;28;20702;-73
2022/05/08 04:59:20;;;;;;;41.42;19.33;;;;;10.60;96852.00;;;;8349419;28;20546;-74
2022/05/08 05:03:23;;;;;;;34.00;18.58;;;;;10.80;96845.00;;;;8341928;28;20233;-73
2022/05/08 05:07:26;;;;;;;36.20;19.27;;;;;11.10;96855.00;;;;8342146;28;20228;-73
2022/05/08 05:11:30;;;;;;;33.42;18.92;;;;;11.30;96853.00;;;;8343825;28;20589;-74
2022/05/08 05:15:33;;;;;;;32.40;19.40;;;;;11.50;96862.00;;;;8342063;28;20701;-74
2022/05/08 05:19:37;;;;;;;32.15;17.30;;;;;11.70;96852.00;;;;8350974;28;20221;-72
2022/05/08 05:23:42;;;;;;;28.35;17.55;;;;;11.90;96856.00;;;;8339258;28;20223;-73
2022/05/08 05:27:46;;;;;;;27.40;17.10;;;;;12.10;96863.00;;;;8349228;28;20233;-73
2022/05/08 05:31:50;;;;;;;21.27;14.55;;;;;12.30;96863.00;;;;8342130;28;20791;-73
2022/05/08 05:35:53;;;;;;;28.45;17.25;;;;;12.40;96867.00;;;;8338397;28;20234;-73
2022/05/08 05:39:56;;;;;;;31.05;16.95;;;;;12.60;96870.00;;;;8341513;28;20260;-74
2022/05/08 05:44:01;;;;;;;23.92;16.23;;;;;12.70;96870.00;;;;8340328;28;20243;-75
2022/05/08 05:48:05;;;;;;;28.20;17.02;;;;;12.80;96875.00;;;;8343655;28;20240;-75
2022/05/08 05:52:09;;;;;;;26.80;17.48;;;;;13.00;96873.00;;;;8362082;28;20231;-73
2022/05/08 05:56:12;;;;;;;21.38;14.60;;;;;13.10;96886.00;;;;8345129;28;20222;-71
2022/05/08 06:00:18;;;;;;;23.17;15.13;;;;;13.30;96883.00;;;;8338185;28;20227;-74
2022/05/08 06:04:22;;;;;;;26.13;17.83;;;;;13.40;96888.00;;;;8214053;28;20239;-73
2022/05/08 06:08:25;;;;;;;27.70;16.80;;;;;13.40;96890.00;;;;8170722;28;20316;-73
2022/05/08 06:12:28;;;;;;;22.45;15.45;;;;;13.60;96890.00;;;;8197820;28;20254;-73
2022/05/08 06:16:33;;;;;;;24.80;16.70;;;;;13.70;96894.00;;;;8203454;28;20245;-72
2022/05/08 06:20:36;;;;;;;26.45;16.25;;;;;13.90;96896.00;;;;8177245;28;20237;-73
2022/05/08 06:24:40;;;;;;;26.45;15.70;;;;;14.10;96891.00;;;;8172343;28;20262;-71
2022/05/08 06:28:45;;;;;;;23.10;15.60;;;;;14.10;96892.00;;;;8178157;28;20242;-71
2022/05/08 06:32:50;;;;;;;22.40;15.07;;;;;14.20;96896.00;;;;8177712;28;20290;-71
2022/05/08 06:37:13;;;;;;;26.85;14.73;;;;;14.30;96893.00;;;;8164492;28;20676;-72
2022/05/08 06:41:16;;;;;;;20.92;15.10;;;;;14.40;96896.00;;;;8173488;28;20736;-73
2022/05/08 06:45:24;;;;;;;23.30;15.18;;;;;14.80;96900.00;;;;8219757;28;20825;-72
2022/05/08 06:49:28;;;;;;;19.77;14.45;;;;;15.00;96906.00;;;;8175818;28;20252;-73
2022/05/08 06:53:32;;;;;;;22.95;15.77;;;;;15.30;96900.00;;;;8202517;28;20711;-71
2022/05/08 06:57:35;;;;;;;19.88;14.25;;;;;15.70;96901.00;;;;8171729;28;20228;-71
2022/05/08 07:01:40;;;;;;;20.83;14.20;;;;;16.00;96906.00;;;;8180974;28;20331;-71
2022/05/08 07:05:47;;;;;;;18.50;14.48;;;;;16.20;96910.00;;;;8181537;28;20236;-71
2022/05/08 07:09:51;;;;;;;20.65;14.15;;;;;16.20;96908.00;;;;8188041;28;20291;-71
2022/05/08 07:13:54;;;;;;;19.98;14.10;;;;;16.30;96908.00;;;;8189862;28;20980;-72
2022/05/08 07:17:57;;;;;;;20.55;14.63;;;;;16.70;96912.00;;;;8188707;28;20236;-72
2022/05/08 07:22:02;;;;;;;16.40;12.98;;;;;16.90;96919.00;;;;8184619;28;20232;-73
2022/05/08 07:26:06;;;;;;;17.63;13.32;;;;;16.80;96917.00;;;;8187889;28;20301;-74
2022/05/08 07:30:10;;;;;;;17.17;12.60;;;;;16.90;96917.00;;;;8183046;28;20231;-72
2022/05/08 07:38:36;;;;;;;21.10;12.90;;;;;17.40;96919.00;;;;8195242;28;20227;-70
2022/05/08 07:42:39;;;;;;;16.52;11.88;;;;;17.50;96921.00;;;;8199075;28;20235;-71
2022/05/08 07:46:42;;;;;;;16.75;12.55;;;;;17.50;96921.00;;;;8190609;28;20241;-70
2022/05/08 07:50:46;;;;;;;13.93;11.57;;;;;18.00;96931.00;;;;8193896;28;20224;-74
2022/05/08 07:54:56;;;;;;;13.60;11.65;;;;;18.50;96926.00;;;;8195067;28;20239;-77
2022/05/08 07:59:00;;;;;;;12.55;10.90;;;;;19.20;96937.00;;;;8184584;28;20324;-74
2022/05/08 08:03:03;;;;;;;13.77;10.68;;;;;19.60;96947.00;;;;8222323;28;20229;-82
2022/05/08 08:07:06;;;;;;;13.93;11.90;;;;;19.70;96946.00;;;;8348596;28;20263;-75
2022/05/08 08:11:11;;;;;;;15.30;10.98;;;;;19.90;96945.00;;;;8346162;28;20244;-78
2022/05/08 08:15:14;;;;;;;13.35;10.85;;;;;20.10;96961.00;;;;8346055;28;20235;-73
2022/05/08 08:19:18;;;;;;;13.07;10.75;;;;;20.20;96953.00;;;;8348558;28;20228;-73
2022/05/08 08:23:21;;;;;;;15.52;11.23;;;;;20.20;96956.00;;;;8350537;28;20228;-73
2022/05/08 08:27:26;;;;;;;13.30;10.45;;;;;20.40;96960.00;;;;8348941;28;20259;-76
2022/05/08 08:31:29;;;;;;;16.88;10.27;;;;;20.20;96970.00;;;;8345138;28;20701;-73
2022/05/08 08:35:32;;;;;;;13.27;10.52;;;;;20.10;96969.00;;;;8352042;28;20224;-76
2022/05/08 08:39:42;;;;;;;15.55;11.43;;;;;20.20;96964.00;;;;8340833;28;20283;-79
2022/05/08 08:48:16;;;;;;;13.02;10.13;;;;;20.60;96968.00;;;;8342076;28;20285;-74
2022/05/08 08:52:21;;;;;;;14.13;11.60;;;;;21.00;96969.00;;;;8348934;28;20236;-73
2022/05/08 08:56:25;;;;;;;13.68;10.52;;;;;21.30;96971.00;;;;8352587;28;20778;-76
2022/05/08 09:00:29;;;;;;;12.27;9.75;;;;;21.70;96976.00;;;;8349233;28;20229;-74
2022/05/08 09:04:34;;;;;;;12.73;10.60;;;;;21.80;96969.00;;;;8355038;28;20224;-73
2022/05/08 09:08:37;;;;;;;11.93;9.77;;;;;22.00;96984.00;;;;8355529;28;20239;-75
2022/05/08 09:13:06;;;;;;;10.15;9.15;;;;;22.40;96985.00;;;;8346759;28;20239;-73
2022/05/08 09:17:14;;;;;;;14.05;9.80;;;;;22.50;96986.00;;;;8356268;28;20286;-73
2022/05/08 09:25:51;;;;;;;14.15;9.77;;;;;22.80;96988.00;;;;8352087;28;20238;-72
2022/05/08 09:30:15;;;;;;;9.27;8.38;;;;;23.00;96986.00;;;;8350498;28;20232;-76
2022/05/08 09:34:19;;;;;;;8.63;7.45;;;;;23.20;96996.00;;;;8354923;28;20234;-73
2022/05/08 09:38:23;;;;;;;8.82;6.80;;;;;23.50;96988.00;;;;8350655;28;20230;-73
2022/05/08 09:42:39;;;;;;;7.53;6.43;;;;;23.50;96987.00;;;;8354620;28;20234;-75
2022/05/08 09:46:44;;;;;;;7.95;7.15;;;;;23.80;96987.00;;;;8345619;28;20233;-76
2022/05/08 09:50:50;;;;;;;7.47;6.20;;;;;24.00;96990.00;;;;8355175;28;20229;-74
2022/05/08 09:54:53;;;;;;;8.40;5.85;;;;;24.10;96998.00;;;;8332653;28;20255;-76
2022/05/08 09:58:57;;;;;;;8.82;6.15;;;;;24.00;96990.00;;;;8348352;28;21950;-77
2022/05/08 10:03:02;;;;;;;10.10;6.32;;;;;24.00;96986.00;;;;8353979;28;20240;-80
2022/05/08 10:07:07;;;;;;;6.82;5.82;;;;;24.10;96991.00;;;;8347116;28;20733;-75
2022/05/08 10:15:36;;;;;;;7.13;6.43;;;;;24.50;96997.00;;;;8344375;28;20705;-72
2022/05/08 10:19:48;;;;;;;6.70;6.10;;;;;24.80;96981.00;;;;8342322;28;20232;-72
2022/05/08 10:23:53;;;;;;;7.68;6.88;;;;;25.10;96980.00;;;;8338660;28;20312;-72
2022/05/08 10:28:06;;;;;;;7.13;6.43;;;;;25.60;96987.00;;;;8338634;28;20311;-72
2022/05/08 10:32:13;;;;;;;8.45;5.40;;;;;26.10;96986.00;;;;8330283;28;20236;-73
2022/05/08 10:36:16;;;;;;;6.70;5.63;;;;;26.20;96982.00;;;;8334626;28;21064;-75
2022/05/08 10:40:34;;;;;;;7.10;5.50;;;;;26.40;96980.00;;;;8343463;28;20274;-72
2022/05/08 10:44:40;;;;;;;8.73;5.78;;;;;26.50;96976.00;;;;8328447;28;20216;-73
2022/05/08 10:48:44;;;;;;;12.38;6.38;;;;;26.80;96973.00;;;;8342262;28;20316;-73
2022/05/08 10:52:48;;;;;;;6.30;5.75;;;;;26.90;96978.00;;;;8338963;28;20227;-73
2022/05/08 10:56:55;;;;;;;8.00;6.30;;;;;27.10;96982.00;;;;8341949;28;20221;-72
2022/05/08 11:01:00;;;;;;;6.47;5.80;;;;;27.30;96982.00;;;;8344452;28;20308;-74
2022/05/08 11:05:04;;;;;;;9.13;5.95;;;;;27.60;96984.00;;;;8346678;28;20227;-75
2022/05/08 11:09:07;;;;;;;6.75;6.13;;;;;27.80;96971.00;;;;8355605;28;20230;-74
2022/05/08 11:13:14;;;;;;;5.82;5.25;;;;;28.00;96972.00;;;;8357360;28;20299;-71
2022/05/08 11:17:21;;;;;;;6.88;5.90;;;;;28.00;96964.00;;;;8356750;28;20682;-71
2022/05/08 11:21:25;;;;;;;7.70;5.93;;;;;28.00;96963.00;;;;8324856;28;20229;-75
2022/05/08 11:25:29;;;;;;;10.98;5.88;;;;;28.10;96965.00;;;;8357737;28;20238;-75
2022/05/08 11:29:33;;;;;;;8.07;7.00;;;;;28.30;96969.00;;;;8351243;28;20863;-75
2022/05/08 11:38:02;;;;;;;8.18;6.10;;;;;28.10;96966.00;;;;8349502;28;20235;-71
2022/05/08 11:42:05;;;;;;;6.72;5.55;;;;;28.00;96972.00;;;;8350747;28;20220;-78
2022/05/08 11:46:15;;;;;;;6.18;5.60;;;;;28.00;96970.00;;;;8307329;28;20609;-75
2022/05/08 11:50:26;;;;;;;6.65;5.22;;;;;27.90;96967.00;;;;8344743;28;20240;-74
2022/05/08 11:54:32;;;;;;;5.88;5.03;;;;;27.70;96963.00;;;;8347222;28;20232;-74
2022/05/08 11:58:36;;;;;;;6.10;5.13;;;;;27.60;96969.00;;;;8338255;28;20669;-71
2022/05/08 12:02:42;;;;;;;10.07;5.40;;;;;27.70;96961.00;;;;8356229;28;20236;-73
2022/05/08 12:06:56;;;;;;;7.45;5.07;;;;;27.60;96960.00;;;;8335564;28;20232;-73
2022/05/08 12:10:59;;;;;;;6.18;5.40;;;;;27.60;96957.00;;;;8357751;28;20244;-74
2022/05/08 12:15:17;;;;;;;6.60;5.60;;;;;27.80;96961.00;;;;8343633;28;20225;-71
2022/05/08 12:19:22;;;;;;;5.65;4.80;;;;;27.90;96950.00;;;;8345135;28;20224;-75
2022/05/08 12:23:25;;;;;;;6.70;5.30;;;;;27.90;96958.00;;;;8343893;28;20220;-73
2022/05/08 12:27:29;;;;;;;7.03;6.03;;;;;28.00;96945.00;;;;8346416;28;20331;-71
2022/05/08 12:31:32;;;;;;;8.13;5.30;;;;;27.90;96952.00;;;;8342782;28;20319;-73
2022/05/08 12:35:38;;;;;;;5.80;5.30;;;;;27.80;96944.00;;;;8342824;28;22030;-73
2022/05/08 12:39:42;;;;;;;6.65;5.60;;;;;27.80;96945.00;;;;8339264;28;20220;-74
2022/05/08 12:43:45;;;;;;;5.43;4.97;;;;;27.90;96944.00;;;;8348044;28;20247;-75
2022/05/08 12:47:49;;;;;;;10.98;5.65;;;;;28.00;96934.00;;;;8347525;28;21324;-76
2022/05/08 12:51:53;;;;;;;6.20;5.20;;;;;27.80;96940.00;;;;8344927;28;20597;-74
2022/05/08 12:55:56;;;;;;;7.45;4.65;;;;;27.70;96937.00;;;;8345445;28;20243;-76
2022/05/08 13:00:00;;;;;;;6.05;4.70;;;;;27.60;96938.00;;;;8345129;28;20227;-74
2022/05/08 13:04:04;;;;;;;6.35;4.72;;;;;27.90;96932.00;;;;8368568;28;20598;-76
2022/05/08 13:08:09;;;;;;;5.43;4.93;;;;;28.10;96932.00;;;;8290489;28;20224;-77
2022/05/08 13:12:13;;;;;;;7.13;4.75;;;;;27.80;96929.00;;;;8335181;28;20279;-76
2022/05/08 13:16:16;;;;;;;4.80;4.25;;;;;27.40;96929.00;;;;8313478;28;20694;-74
2022/05/08 13:20:20;;;;;;;7.03;4.90;;;;;27.50;96925.00;;;;8357334;28;20227;-76
2022/05/08 13:24:24;;;;;;;5.57;4.28;;;;;27.70;96930.00;;;;8353450;28;20232;-75
2022/05/08 13:28:31;;;;;;;4.28;3.92;;;;;28.00;96923.00;;;;8350687;28;20303;-73
2022/05/08 13:32:36;;;;;;;5.13;4.22;;;;;27.90;96926.00;;;;8350701;28;20331;-76
2022/05/08 13:36:39;;;;;;;4.57;4.18;;;;;27.30;96919.00;;;;8351658;28;20233;-74
2022/05/08 13:40:44;;;;;;;5.53;4.22;;;;;27.00;96909.00;;;;8343834;28;20264;-77
2022/05/08 13:44:47;;;;;;;7.72;4.25;;;;;26.40;96918.00;;;;8358278;28;20240;-73
2022/05/08 13:48:51;;;;;;;4.75;4.35;;;;;26.60;96916.00;;;;8309521;28;20239;-75
2022/05/08 13:52:55;;;;;;;5.97;4.38;;;;;27.20;96916.00;;;;8358457;28;20853;-75
2022/05/08 13:57:00;;;;;;;6.50;4.18;;;;;27.30;96905.00;;;;8344670;28;21829;-75
2022/05/08 14:01:05;;;;;;;6.78;4.07;;;;;27.50;96912.00;;;;8346947;28;20303;-75
2022/05/08 14:05:08;;;;;;;5.15;3.90;;;;;28.20;96912.00;;;;8358151;28;20227;-75
2022/05/08 14:09:16;;;;;;;4.30;3.67;;;;;28.50;96897.00;;;;8356234;28;20230;-72
2022/05/08 14:13:24;;;;;;;3.97;3.45;;;;;28.70;96903.00;;;;8350246;28;20219;-74
2022/05/08 14:17:27;;;;;;;5.93;3.55;;;;;28.80;96898.00;;;;8367701;28;20227;-77
2022/05/08 14:21:31;;;;;;;4.55;3.60;;;;;29.40;96891.00;;;;8362314;28;20225;-73
2022/05/08 14:25:34;;;;;;;4.05;3.50;;;;;29.80;96891.00;;;;8344907;28;20238;-79
2022/05/08 14:29:39;;;;;;;4.20;3.35;;;;;29.90;96888.00;;;;8335359;28;20230;-77
2022/05/08 14:38:06;;;;;;;4.00;3.65;;;;;27.60;96891.00;;;;8293343;28;20215;-75
2022/05/08 14:42:09;;;;;;;4.70;3.45;;;;;26.80;96879.00;;;;8305238;28;20319;-75
2022/05/08 14:46:14;;;;;;;3.78;3.10;;;;;26.40;96876.00;;;;8341139;28;20311;-79
2022/05/08 14:50:18;;;;;;;3.97;3.33;;;;;26.10;96877.00;;;;8355223;28;20229;-74
2022/05/08 14:54:21;;;;;;;3.55;3.22;;;;;25.60;96878.00;;;;8338128;28;20307;-76
2022/05/08 14:58:24;;;;;;;6.40;3.70;;;;;25.30;96870.00;;;;8364121;28;20238;-73
2022/05/08 15:02:29;;;;;;;3.60;3.30;;;;;25.40;96871.00;;;;8345894;28;20235;-72
2022/05/08 15:06:33;;;;;;;8.88;3.45;;;;;25.70;96871.00;;;;8305232;28;20228;-73
2022/05/08 15:10:36;;;;;;;3.78;3.40;;;;;25.80;96869.00;;;;8310188;28;20223;-73
2022/05/08 15:14:39;;;;;;;4.50;3.10;;;;;25.50;96874.00;;;;8338129;28;20686;-71
2022/05/08 15:18:50;;;;;;;4.57;3.10;;;;;25.10;96876.00;;;;8296885;28;20525;-70
2022/05/08 15:22:55;;;;;;;3.35;3.05;;;;;24.80;96876.00;;;;8336781;28;20256;-71
2022/05/08 15:26:59;;;;;;;3.80;3.45;;;;;24.50;96876.00;;;;8310481;28;20582;-71
2022/05/08 15:31:02;;;;;;;3.38;3.15;;;;;24.20;96879.00;;;;8265888;28;20242;-71
2022/05/08 15:35:08;;;;;;;3.75;3.45;;;;;24.20;96872.00;;;;8295420;28;20235;-71
2022/05/08 15:39:11;;;;;;;4.28;3.28;;;;;24.10;96878.00;;;;8181965;28;20223;-70
2022/05/08 15:43:15;;;;;;;6.10;4.20;;;;;24.10;96883.00;;;;8262980;28;20230;-72
2022/05/08 15:47:18;;;;;;;4.95;4.20;;;;;24.20;96874.00;;;;8319497;28;20281;-69
2022/05/08 15:51:23;;;;;;;5.68;4.07;;;;;24.30;96884.00;;;;8299282;28;20690;-71
2022/05/08 15:55:27;;;;;;;23.77;15.20;;;;;24.30;96883.00;;;;8356226;28;20263;-70
2022/05/08 15:59:32;;;;;;;6.30;3.92;;;;;24.40;96882.00;;;;8358768;28;20228;-70
2022/05/08 16:03:35;;;;;;;4.22;3.83;;;;;24.40;96878.00;;;;8361362;28;20223;-70
2022/05/08 16:07:40;;;;;;;6.05;3.80;;;;;24.30;96874.00;;;;8357770;28;20846;-69
2022/05/08 16:11:43;;;;;;;4.45;3.63;;;;;24.20;96872.00;;;;8347198;28;20423;-68
2022/05/08 16:24:30;;;;;;;5.18;4.03;;;;;24.30;96873.00;;;;8351772;28;20238;-69
2022/05/08 16:28:34;;;;;;;4.35;3.97;;;;;24.30;96869.00;;;;8354497;28;20355;-70
2022/05/08 16:32:37;;;;;;;4.35;3.95;;;;;24.30;96865.00;;;;8354239;28;20887;-70
2022/05/08 16:36:40;;;;;;;3.70;3.40;;;;;24.30;96871.00;;;;8351132;28;20248;-72
2022/05/08 16:40:45;;;;;;;4.30;3.90;;;;;24.20;96871.00;;;;8328478;28;20798;-70
2022/05/08 16:44:48;;;;;;;8.93;4.18;;;;;24.00;96875.00;;;;8340595;28;20638;-73
2022/05/08 16:48:52;;;;;;;4.75;3.70;;;;;23.90;96868.00;;;;8334811;28;20221;-70
2022/05/08 16:52:56;;;;;;;6.80;4.03;;;;;23.80;96880.00;;;;8339883;28;20880;-69
2022/05/08 16:57:01;;;;;;;7.57;4.70;;;;;23.70;96882.00;;;;8330724;28;20246;-70
2022/05/08 17:01:06;;;;;;;5.57;4.40;;;;;23.60;96881.00;;;;8343638;28;20240;-67
2022/05/08 17:05:09;;;;;;;6.25;4.30;;;;;23.60;96885.00;;;;8342970;28;20241;-67
2022/05/08 17:09:13;;;;;;;6.38;4.10;;;;;23.70;96891.00;;;;8343702;28;20325;-70
2022/05/08 17:13:17;;;;;;;7.05;3.95;;;;;23.70;96888.00;;;;8341782;28;20231;-71
2022/05/08 17:17:21;;;;;;;5.30;3.95;;;;;23.70;96890.00;;;;8336556;28;20232;-73
2022/05/08 17:21:24;;;;;;;7.43;4.85;;;;;23.50;96898.00;;;;8342372;28;20231;-72
2022/05/08 17:25:28;;;;;;;5.57;4.90;;;;;23.30;96909.00;;;;8355474;28;20246;-72
2022/05/08 17:29:32;;;;;;;7.25;5.55;;;;;23.20;96907.00;;;;8351477;28;20728;-72
2022/05/08 17:33:36;;;;;;;6.32;5.22;;;;;23.00;96911.00;;;;8353533;28;20742;-72
2022/05/08 17:37:41;;;;;;;5.40;4.82;;;;;22.60;96914.00;;;;8366321;28;20229;-71
2022/05/08 17:41:44;;;;;;;8.95;4.65;;;;;22.10;96918.00;;;;8353658;28;20231;-73
2022/05/08 17:45:49;;;;;;;5.13;4.68;;;;;21.80;96922.00;;;;8364667;28;20342;-73
2022/05/08 17:49:52;;;;;;;5.82;4.70;;;;;21.50;96929.00;;;;8357020;28;20285;-73
2022/05/08 17:53:55;;;;;;;6.93;4.38;;;;;21.20;96928.00;;;;8351739;28;20228;-71
2022/05/08 17:57:59;;;;;;;6.43;4.45;;;;;20.90;96929.00;;;;8340341;28;20279;-72
2022/05/08 18:06:24;;;;;;;5.15;4.50;;;;;20.40;96939.00;;;;8182358;28;20254;-73
2022/05/08 18:10:28;;;;;;;5.40;4.13;;;;;20.10;96950.00;;;;8167249;28;20237;-73
2022/05/08 18:14:31;;;;;;;4.22;3.83;;;;;19.90;96949.00;;;;8163928;28;20406;-73
2022/05/08 18:18:37;;;;;;;5.32;4.00;;;;;19.60;96952.00;;;;8173224;28;20231;-75
2022/05/08 18:22:40;;;;;;;5.63;3.63;;;;;19.30;96959.00;;;;8180194;28;20238;-72
2022/05/08 18:26:43;;;;;;;4.00;3.33;;;;;19.10;96957.00;;;;8173594;28;20563;-72
2022/05/08 18:30:47;;;;;;;3.30;3.00;;;;;18.80;96951.00;;;;8177586;28;20220;-72
2022/05/08 18:34:52;;;;;;;5.13;3.45;;;;;18.60;96956.00;;;;8179105;28;20266;-73
2022/05/08 18:39:00;;;;;;;3.53;3.20;;;;;18.40;96963.00;;;;8205829;28;20229;-73
2022/05/08 18:43:04;;;;;;;5.47;3.17;;;;;18.10;96969.00;;;;8172386;28;20232;-72
2022/05/08 18:47:07;;;;;;;6.68;3.85;;;;;17.90;96971.00;;;;8179793;28;20226;-72
2022/05/08 18:51:13;;;;;;;3.90;3.47;;;;;17.80;96978.00;;;;8176689;28;20220;-73
2022/05/08 18:55:16;;;;;;;3.85;3.50;;;;;17.60;96983.00;;;;8178883;28;20231;-72
2022/05/08 18:59:21;;;;;;;7.30;3.50;;;;;17.50;96984.00;;;;8178551;28;20232;-72
2022/05/08 19:03:24;;;;;;;3.70;3.40;;;;;17.30;96989.00;;;;8269201;28;20232;-71
2022/05/08 19:07:29;;;;;;;4.35;3.95;;;;;17.00;96992.00;;;;8336958;28;20228;-71
2022/05/08 19:11:33;;;;;;;4.28;3.70;;;;;16.70;96998.00;;;;8336528;28;20300;-71
2022/05/08 19:15:36;;;;;;;4.15;3.85;;;;;16.50;97008.00;;;;8345216;28;20611;-73
2022/05/08 19:19:39;;;;;;;4.57;4.15;;;;;16.40;97012.00;;;;8341082;28;20221;-73
2022/05/08 19:23:44;;;;;;;7.50;4.03;;;;;16.30;97020.00;;;;8343475;28;20748;-73
2022/05/08 19:27:47;;;;;;;7.03;4.40;;;;;16.30;97018.00;;;;8340712;28;20647;-73
2022/05/08 19:40:33;;;;;;;6.28;4.32;;;;;16.50;97028.00;;;;8348463;28;20685;-71
2022/05/08 19:44:37;;;;;;;5.05;4.57;;;;;16.50;97038.00;;;;8348559;28;20308;-71
2022/05/08 19:48:40;;;;;;;10.10;4.90;;;;;16.40;97026.00;;;;8348391;28;20228;-71
2022/05/08 19:52:44;;;;;;;5.05;4.55;;;;;16.40;97035.00;;;;8345372;28;20675;-71
2022/05/08 19:56:50;;;;;;;10.50;5.90;;;;;16.40;97039.00;;;;8344959;28;20319;-71
2022/05/08 20:00:53;;;;;;;6.20;4.47;;;;;16.40;97040.00;;;;8349595;28;20299;-71
2022/05/08 20:04:59;;;;;;;5.22;4.70;;;;;16.40;97045.00;;;;8344004;28;20232;-72
2022/05/08 20:09:04;;;;;;;5.28;4.78;;;;;16.30;97041.00;;;;8344793;28;20914;-72
2022/05/08 20:13:08;;;;;;;6.18;4.85;;;;;16.20;97045.00;;;;8345949;28;20719;-72
2022/05/08 20:17:12;;;;;;;11.10;5.85;;;;;16.20;97057.00;;;;8345705;28;20239;-71
2022/05/08 20:25:36;;;;;;;6.40;5.53;;;;;16.00;97057.00;;;;8342287;28;20224;-77
2022/05/08 20:29:41;;;;;;;7.63;5.63;;;;;15.90;97061.00;;;;8352311;28;20687;-77
2022/05/08 20:33:44;;;;;;;7.18;5.80;;;;;15.80;97065.00;;;;8355094;28;26302;-78
2022/05/08 20:37:47;;;;;;;8.15;5.80;;;;;15.80;97064.00;;;;8370556;28;20842;-76
2022/05/08 20:41:51;;;;;;;9.73;6.22;;;;;15.70;97062.00;;;;8369918;28;20225;-78
2022/05/08 20:45:56;;;;;;;6.10;5.50;;;;;15.60;97063.00;;;;8353854;28;20327;-76
2022/05/08 20:49:59;;;;;;;8.52;6.45;;;;;15.40;97065.00;;;;8354361;28;20237;-76
2022/05/08 20:54:03;;;;;;;9.05;6.72;;;;;15.20;97074.00;;;;8355927;28;20256;-76
2022/05/08 20:58:06;;;;;;;15.40;6.47;;;;;15.00;97072.00;;;;8350272;28;20735;-76
2022/05/08 21:02:11;;;;;;;9.40;6.78;;;;;14.80;97069.00;;;;8312691;28;20238;-76
2022/05/08 21:10:37;;;;;;;14.70;7.80;;;;;14.40;97074.00;;;;8176006;28;20228;-75
2022/05/08 21:14:40;;;;;;;15.23;7.15;;;;;14.20;97076.00;;;;8188052;28;20236;-75
2022/05/08 21:18:45;;;;;;;12.15;6.80;;;;;14.20;97068.00;;;;8182900;28;20245;-74
2022/05/08 21:22:48;;;;;;;11.10;7.90;;;;;14.00;97068.00;;;;8185413;28;20238;-76
2022/05/08 21:26:51;;;;;;;10.75;7.13;;;;;13.90;97068.00;;;;8187557;28;20714;-75